Norrland — C4KF2 — position and weather

sailwx.info

Track history (hours):
 
Tides and Currents Weather Stations Pressure Air Temp Water Temp Dewpoint Dewpoint Depression Visibility Wind Speed Wind Dir Waves Ship Positions

Norrland

Last reported at 2016-Sep-29 23:33 UTC. Time now 2016-Sep-29 23:53 UTC.
Position N 58°25' E 005°01'.

Length 118 m; draft 4.5 m.

Type: Cargo ship. MMSI: 212521000.

Date/timePositionNaut miles runAvg speedWind from/ knotsBaromVisibWave heightAir tempDewpointWater temp
2016-Sep-29 23:33N 58°25' E 005°01'7 3.4
2016-Sep-29 21:33N 58°23' E 005°14'3 3.3
2016-Sep-29 20:33N 58°23' E 005°20'3 2.7
2016-Sep-29 19:26N 58°22' E 005°26'254 7.3
2016-Sep-28 08:34N 54°09' E 005°08'6410.7
2016-Sep-28 02:33N 53°09' E 004°29'1511.7
2016-Sep-28 01:14N 52°55' E 004°17'2011.8
2016-Sep-27 23:31N 52°38' E 003°60'37 9.3
2016-Sep-27 19:33N 52°01' E 003°60'17 3.4
2016-Sep-27 14:33N 51°53' E 004°24'0 0.0
2016-Sep-27 13:33N 51°53' E 004°24'0 0.0
2016-Sep-27 10:34N 51°53' E 004°24'0 0.0
2016-Sep-27 00:34N 51°53' E 004°24'0 0.0
2016-Sep-26 20:33N 51°53' E 004°24'0 0.0
2016-Sep-26 19:34N 51°53' E 004°24'0 0.0
2016-Sep-26 15:33N 51°53' E 004°24'0 0.0
2016-Sep-26 13:34N 51°53' E 004°24'0 0.0
2016-Sep-26 11:34N 51°53' E 004°24'0 0.0
2016-Sep-26 08:34N 51°53' E 004°24'0 0.0
2016-Sep-26 01:34N 51°53' E 004°24'0 0.0
2016-Sep-26 00:34N 51°53' E 004°24'1 0.2
2016-Sep-25 21:34N 51°54' E 004°24'34 8.3
2016-Sep-25 17:26N 52°20' E 003°47'1210.4
2016-Sep-25 16:19N 52°31' E 003°52'810.4
2016-Sep-25 15:32N 52°39' E 003°54'54 8.7
2016-Sep-25 09:19N 53°27' E 004°35'1910.8
2016-Sep-25 07:33N 53°34' E 005°05'3310.8
2016-Sep-25 04:31N 53°46' E 005°57'38 9.7
2016-Sep-25 00:33N 53°56' E 006°59'2210.8
2016-Sep-24 22:33N 54°01' E 007°35'1111.3
2016-Sep-24 21:33N 54°01' E 007°54'2412.2
2016-Sep-24 19:33N 53°58' E 008°35'1010.3
2016-Sep-24 18:33N 53°51' E 008°48'9 8.9
2016-Sep-24 17:33N 53°52' E 009°02'4 4.0
2016-Sep-24 16:33N 53°54' E 009°09'39 6.4
2016-Sep-24 10:33N 54°20' E 009°56'6 6.2
2016-Sep-24 09:33N 54°22' E 010°06'40 6.7
2016-Sep-24 03:33N 54°36' E 011°11'10 9.7
2016-Sep-24 02:33N 54°31' E 011°26'1010.0
2016-Sep-24 01:33N 54°27' E 011°42'9 9.2
2016-Sep-24 00:33N 54°26' E 011°58'67 9.5
2016-Sep-23 17:33N 54°59' E 013°38'1010.2
2016-Sep-23 16:33N 55°03' E 013°55'10 9.9
2016-Sep-23 15:33N 55°08' E 014°10'2010.2
2016-Sep-23 13:33N 55°24' E 014°32'  
Track history (hours):
 
Tides and Currents Weather Stations Pressure Air Temp Water Temp Dewpoint Dewpoint Depression Visibility Wind Speed Wind Dir Waves Ship Positions

Norrland

Last reported at 2016-Sep-29 23:33 UTC. Time now 2016-Sep-29 23:53 UTC.
Position N 58°25' E 005°01'.

Length 118 m; draft 4.5 m.

Type: Cargo ship. MMSI: 212521000.

Date/timePositionNaut miles runAvg speedWind from/ knotsBaromVisibWave heightAir tempDewpointWater temp
2016-Sep-29 23:33N 58°25' E 005°01'7 3.4
2016-Sep-29 21:33N 58°23' E 005°14'3 3.3
2016-Sep-29 20:33N 58°23' E 005°20'3 2.7
2016-Sep-29 19:26N 58°22' E 005°26'254 7.3
2016-Sep-28 08:34N 54°09' E 005°08'6410.7
2016-Sep-28 02:33N 53°09' E 004°29'1511.7
2016-Sep-28 01:14N 52°55' E 004°17'2011.8
2016-Sep-27 23:31N 52°38' E 003°60'37 9.3
2016-Sep-27 19:33N 52°01' E 003°60'17 3.4
2016-Sep-27 14:33N 51°53' E 004°24'0 0.0
2016-Sep-27 13:33N 51°53' E 004°24'0 0.0
2016-Sep-27 10:34N 51°53' E 004°24'0 0.0
2016-Sep-27 00:34N 51°53' E 004°24'0 0.0
2016-Sep-26 20:33N 51°53' E 004°24'0 0.0
2016-Sep-26 19:34N 51°53' E 004°24'0 0.0
2016-Sep-26 15:33N 51°53' E 004°24'0 0.0
2016-Sep-26 13:34N 51°53' E 004°24'0 0.0
2016-Sep-26 11:34N 51°53' E 004°24'0 0.0
2016-Sep-26 08:34N 51°53' E 004°24'0 0.0
2016-Sep-26 01:34N 51°53' E 004°24'0 0.0
2016-Sep-26 00:34N 51°53' E 004°24'1 0.2
2016-Sep-25 21:34N 51°54' E 004°24'34 8.3
2016-Sep-25 17:26N 52°20' E 003°47'1210.4
2016-Sep-25 16:19N 52°31' E 003°52'810.4
2016-Sep-25 15:32N 52°39' E 003°54'54 8.7
2016-Sep-25 09:19N 53°27' E 004°35'1910.8
2016-Sep-25 07:33N 53°34' E 005°05'3310.8
2016-Sep-25 04:31N 53°46' E 005°57'38 9.7
2016-Sep-25 00:33N 53°56' E 006°59'2210.8
2016-Sep-24 22:33N 54°01' E 007°35'1111.3
2016-Sep-24 21:33N 54°01' E 007°54'2412.2
2016-Sep-24 19:33N 53°58' E 008°35'1010.3
2016-Sep-24 18:33N 53°51' E 008°48'9 8.9
2016-Sep-24 17:33N 53°52' E 009°02'4 4.0
2016-Sep-24 16:33N 53°54' E 009°09'39 6.4
2016-Sep-24 10:33N 54°20' E 009°56'6 6.2
2016-Sep-24 09:33N 54°22' E 010°06'40 6.7
2016-Sep-24 03:33N 54°36' E 011°11'10 9.7
2016-Sep-24 02:33N 54°31' E 011°26'1010.0
2016-Sep-24 01:33N 54°27' E 011°42'9 9.2
2016-Sep-24 00:33N 54°26' E 011°58'67 9.5
2016-Sep-23 17:33N 54°59' E 013°38'1010.2
2016-Sep-23 16:33N 55°03' E 013°55'10 9.9
2016-Sep-23 15:33N 55°08' E 014°10'2010.2
2016-Sep-23 13:33N 55°24' E 014°32'  

Dump ship's entire track history